sensor_id;sensor_type;location;lat;lon;timestamp;temperature;humidity
50162;DHT22;36061;48.116;11.612;2023-07-29T00:00:55;17.40;99.90
50162;DHT22;36061;48.116;11.612;2023-07-29T00:03:22;17.40;99.90
50162;DHT22;36061;48.116;11.612;2023-07-29T00:05:49;17.40;99.90
50162;DHT22;36061;48.116;11.612;2023-07-29T00:08:16;17.40;99.90
50162;DHT22;36061;48.116;11.612;2023-07-29T00:10:44;17.30;99.90
50162;DHT22;36061;48.116;11.612;2023-07-29T00:13:12;17.30;99.90
50162;DHT22;36061;48.116;11.612;2023-07-29T00:15:39;17.30;99.90
50162;DHT22;36061;48.116;11.612;2023-07-29T00:18:07;17.30;99.90
50162;DHT22;36061;48.116;11.612;2023-07-29T00:20:34;17.30;99.90
50162;DHT22;36061;48.116;11.612;2023-07-29T00:23:01;17.30;99.90
50162;DHT22;36061;48.116;11.612;2023-07-29T00:25:28;17.20;99.90
50162;DHT22;36061;48.116;11.612;2023-07-29T00:27:56;17.20;99.90
50162;DHT22;36061;48.116;11.612;2023-07-29T00:30:25;17.20;99.90
50162;DHT22;36061;48.116;11.612;2023-07-29T00:32:52;17.20;99.90
50162;DHT22;36061;48.116;11.612;2023-07-29T00:35:19;17.20;99.90
50162;DHT22;36061;48.116;11.612;2023-07-29T00:37:47;17.20;99.90
50162;DHT22;36061;48.116;11.612;2023-07-29T00:40:15;17.20;99.90
50162;DHT22;36061;48.116;11.612;2023-07-29T00:42:47;17.20;99.90
50162;DHT22;36061;48.116;11.612;2023-07-29T00:45:15;17.10;99.90
50162;DHT22;36061;48.116;11.612;2023-07-29T00:47:45;17.10;99.90
50162;DHT22;36061;48.116;11.612;2023-07-29T00:50:14;17.10;99.90
50162;DHT22;36061;48.116;11.612;2023-07-29T00:52:42;17.10;99.90
50162;DHT22;36061;48.116;11.612;2023-07-29T00:55:09;17.20;99.90
50162;DHT22;36061;48.116;11.612;2023-07-29T00:57:37;17.10;99.90
50162;DHT22;36061;48.116;11.612;2023-07-29T01:00:06;17.10;99.90
50162;DHT22;36061;48.116;11.612;2023-07-29T01:02:35;17.10;99.90
50162;DHT22;36061;48.116;11.612;2023-07-29T01:05:04;17.10;99.90
50162;DHT22;36061;48.116;11.612;2023-07-29T01:07:36;17.10;99.90
50162;DHT22;36061;48.116;11.612;2023-07-29T01:10:10;17.10;99.90
50162;DHT22;36061;48.116;11.612;2023-07-29T01:12:47;17.10;99.90
50162;DHT22;36061;48.116;11.612;2023-07-29T01:15:18;17.10;99.90
50162;DHT22;36061;48.116;11.612;2023-07-29T01:17:53;17.10;99.90
50162;DHT22;36061;48.116;11.612;2023-07-29T01:20:24;17.10;99.90
50162;DHT22;36061;48.116;11.612;2023-07-29T01:22:52;17.10;99.90
50162;DHT22;36061;48.116;11.612;2023-07-29T01:25:20;17.10;99.90
50162;DHT22;36061;48.116;11.612;2023-07-29T01:27:50;17.10;99.90
50162;DHT22;36061;48.116;11.612;2023-07-29T01:30:19;17.10;99.90
50162;DHT22;36061;48.116;11.612;2023-07-29T01:32:52;17.10;99.90
50162;DHT22;36061;48.116;11.612;2023-07-29T01:35:24;17.00;99.90
50162;DHT22;36061;48.116;11.612;2023-07-29T01:37:55;17.00;99.90
50162;DHT22;36061;48.116;11.612;2023-07-29T01:40:27;17.00;99.90
50162;DHT22;36061;48.116;11.612;2023-07-29T01:42:56;17.00;99.90
50162;DHT22;36061;48.116;11.612;2023-07-29T01:45:24;17.00;99.90
50162;DHT22;36061;48.116;11.612;2023-07-29T01:47:52;17.00;99.90
50162;DHT22;36061;48.116;11.612;2023-07-29T01:50:19;17.00;99.90
50162;DHT22;36061;48.116;11.612;2023-07-29T01:52:47;17.00;99.90
50162;DHT22;36061;48.116;11.612;2023-07-29T01:55:14;16.90;99.90
50162;DHT22;36061;48.116;11.612;2023-07-29T01:57:43;16.90;99.90
50162;DHT22;36061;48.116;11.612;2023-07-29T02:00:11;16.90;99.90
50162;DHT22;36061;48.116;11.612;2023-07-29T02:02:41;16.90;99.90
50162;DHT22;36061;48.116;11.612;2023-07-29T02:05:09;16.90;99.90
50162;DHT22;36061;48.116;11.612;2023-07-29T02:07:36;16.90;99.90
50162;DHT22;36061;48.116;11.612;2023-07-29T02:10:04;16.90;99.90
50162;DHT22;36061;48.116;11.612;2023-07-29T02:12:31;16.90;99.90
50162;DHT22;36061;48.116;11.612;2023-07-29T02:15:00;16.90;99.90
50162;DHT22;36061;48.116;11.612;2023-07-29T02:17:27;17.00;99.90
50162;DHT22;36061;48.116;11.612;2023-07-29T02:19:54;16.90;99.90
50162;DHT22;36061;48.116;11.612;2023-07-29T02:22:22;16.90;99.90
50162;DHT22;36061;48.116;11.612;2023-07-29T02:24:49;16.90;99.90
50162;DHT22;36061;48.116;11.612;2023-07-29T02:27:16;16.90;99.90
50162;DHT22;36061;48.116;11.612;2023-07-29T02:29:43;16.90;99.90
50162;DHT22;36061;48.116;11.612;2023-07-29T02:32:12;16.90;99.90
50162;DHT22;36061;48.116;11.612;2023-07-29T02:34:39;16.90;99.90
50162;DHT22;36061;48.116;11.612;2023-07-29T02:37:07;16.90;99.90
50162;DHT22;36061;48.116;11.612;2023-07-29T02:39:34;16.80;99.90
50162;DHT22;36061;48.116;11.612;2023-07-29T02:42:02;16.80;99.90
50162;DHT22;36061;48.116;11.612;2023-07-29T02:44:30;16.90;99.90
50162;DHT22;36061;48.116;11.612;2023-07-29T02:46:57;16.90;99.90
50162;DHT22;36061;48.116;11.612;2023-07-29T02:49:26;16.80;99.90
50162;DHT22;36061;48.116;11.612;2023-07-29T02:51:53;16.80;99.90
50162;DHT22;36061;48.116;11.612;2023-07-29T02:54:20;16.80;99.90
50162;DHT22;36061;48.116;11.612;2023-07-29T02:56:49;16.70;99.90
50162;DHT22;36061;48.116;11.612;2023-07-29T02:59:17;16.70;99.90
50162;DHT22;36061;48.116;11.612;2023-07-29T03:01:44;16.70;99.90
50162;DHT22;36061;48.116;11.612;2023-07-29T03:04:15;16.60;99.90
50162;DHT22;36061;48.116;11.612;2023-07-29T03:06:43;16.60;99.90
50162;DHT22;36061;48.116;11.612;2023-07-29T03:09:11;16.60;99.90
50162;DHT22;36061;48.116;11.612;2023-07-29T03:11:38;16.60;99.90
50162;DHT22;36061;48.116;11.612;2023-07-29T03:14:05;16.50;99.90
50162;DHT22;36061;48.116;11.612;2023-07-29T03:16:33;16.50;99.90
50162;DHT22;36061;48.116;11.612;2023-07-29T03:19:00;16.50;99.90
50162;DHT22;36061;48.116;11.612;2023-07-29T03:21:27;16.50;99.90
50162;DHT22;36061;48.116;11.612;2023-07-29T03:23:56;16.50;99.90
50162;DHT22;36061;48.116;11.612;2023-07-29T03:26:23;16.50;99.90
50162;DHT22;36061;48.116;11.612;2023-07-29T03:28:51;16.50;99.90
50162;DHT22;36061;48.116;11.612;2023-07-29T03:31:18;16.50;99.90
50162;DHT22;36061;48.116;11.612;2023-07-29T03:33:46;16.50;99.90
50162;DHT22;36061;48.116;11.612;2023-07-29T03:36:14;16.50;99.90
50162;DHT22;36061;48.116;11.612;2023-07-29T03:38:41;16.50;99.90
50162;DHT22;36061;48.116;11.612;2023-07-29T03:41:12;16.50;99.90
50162;DHT22;36061;48.116;11.612;2023-07-29T03:43:39;16.50;99.90
50162;DHT22;36061;48.116;11.612;2023-07-29T03:46:06;16.40;99.90
50162;DHT22;36061;48.116;11.612;2023-07-29T03:48:34;16.40;99.90
50162;DHT22;36061;48.116;11.612;2023-07-29T03:51:01;16.40;99.90
50162;DHT22;36061;48.116;11.612;2023-07-29T03:53:28;16.50;99.90
50162;DHT22;36061;48.116;11.612;2023-07-29T03:55:55;16.50;99.90
50162;DHT22;36061;48.116;11.612;2023-07-29T03:58:24;16.50;99.90
50162;DHT22;36061;48.116;11.612;2023-07-29T04:00:52;16.50;99.90
50162;DHT22;36061;48.116;11.612;2023-07-29T04:03:19;16.50;99.90
50162;DHT22;36061;48.116;11.612;2023-07-29T04:05:47;16.50;99.90
50162;DHT22;36061;48.116;11.612;2023-07-29T04:08:15;16.50;99.90
50162;DHT22;36061;48.116;11.612;2023-07-29T04:10:42;16.60;99.90
50162;DHT22;36061;48.116;11.612;2023-07-29T04:13:09;16.60;99.90
50162;DHT22;36061;48.116;11.612;2023-07-29T04:15:38;16.60;99.90
50162;DHT22;36061;48.116;11.612;2023-07-29T04:18:05;16.60;99.90
50162;DHT22;36061;48.116;11.612;2023-07-29T04:20:33;16.70;99.90
50162;DHT22;36061;48.116;11.612;2023-07-29T04:23:00;16.70;99.90
50162;DHT22;36061;48.116;11.612;2023-07-29T04:25:27;16.80;99.90
50162;DHT22;36061;48.116;11.612;2023-07-29T04:27:54;16.70;99.90
50162;DHT22;36061;48.116;11.612;2023-07-29T04:30:23;16.70;99.90
50162;DHT22;36061;48.116;11.612;2023-07-29T04:32:52;16.70;99.90
50162;DHT22;36061;48.116;11.612;2023-07-29T04:35:19;16.70;99.90
50162;DHT22;36061;48.116;11.612;2023-07-29T04:37:46;16.70;99.90
50162;DHT22;36061;48.116;11.612;2023-07-29T04:40:14;16.70;99.90
50162;DHT22;36061;48.116;11.612;2023-07-29T04:42:41;16.80;99.90
50162;DHT22;36061;48.116;11.612;2023-07-29T04:45:09;16.80;99.90
50162;DHT22;36061;48.116;11.612;2023-07-29T04:47:36;16.90;99.90
50162;DHT22;36061;48.116;11.612;2023-07-29T04:50:07;16.90;99.90
50162;DHT22;36061;48.116;11.612;2023-07-29T04:52:34;17.00;99.90
50162;DHT22;36061;48.116;11.612;2023-07-29T04:55:01;17.10;99.90
50162;DHT22;36061;48.116;11.612;2023-07-29T04:57:29;17.40;99.90
50162;DHT22;36061;48.116;11.612;2023-07-29T04:59:56;17.70;99.90
50162;DHT22;36061;48.116;11.612;2023-07-29T05:02:23;18.40;99.90
50162;DHT22;36061;48.116;11.612;2023-07-29T05:04:51;19.10;99.90
50162;DHT22;36061;48.116;11.612;2023-07-29T05:07:19;19.80;99.90
50162;DHT22;36061;48.116;11.612;2023-07-29T05:09:47;20.50;99.90
50162;DHT22;36061;48.116;11.612;2023-07-29T05:12:14;21.00;99.90
50162;DHT22;36061;48.116;11.612;2023-07-29T05:14:41;21.20;99.90
50162;DHT22;36061;48.116;11.612;2023-07-29T05:17:09;21.30;99.90
50162;DHT22;36061;48.116;11.612;2023-07-29T05:19:36;21.30;99.90
50162;DHT22;36061;48.116;11.612;2023-07-29T05:22:04;21.30;99.90
50162;DHT22;36061;48.116;11.612;2023-07-29T05:24:32;21.10;99.90
50162;DHT22;36061;48.116;11.612;2023-07-29T05:26:59;21.20;99.90
50162;DHT22;36061;48.116;11.612;2023-07-29T05:29:27;21.20;99.90
50162;DHT22;36061;48.116;11.612;2023-07-29T05:31:54;21.00;99.90
50162;DHT22;36061;48.116;11.612;2023-07-29T05:34:23;20.80;99.90
50162;DHT22;36061;48.116;11.612;2023-07-29T05:36:50;20.70;99.90
50162;DHT22;36061;48.116;11.612;2023-07-29T05:39:17;20.60;99.90
50162;DHT22;36061;48.116;11.612;2023-07-29T05:41:46;20.60;99.90
50162;DHT22;36061;48.116;11.612;2023-07-29T05:44:13;20.50;99.90
50162;DHT22;36061;48.116;11.612;2023-07-29T05:46:40;20.30;99.90
50162;DHT22;36061;48.116;11.612;2023-07-29T05:49:08;20.10;99.90
50162;DHT22;36061;48.116;11.612;2023-07-29T05:51:35;19.90;99.90
50162;DHT22;36061;48.116;11.612;2023-07-29T05:54:02;19.70;99.90
50162;DHT22;36061;48.116;11.612;2023-07-29T05:56:30;19.60;99.90
50162;DHT22;36061;48.116;11.612;2023-07-29T05:58:59;19.50;99.90
50162;DHT22;36061;48.116;11.612;2023-07-29T06:01:26;19.40;99.90
50162;DHT22;36061;48.116;11.612;2023-07-29T06:03:53;19.30;99.90
50162;DHT22;36061;48.116;11.612;2023-07-29T06:06:20;19.20;99.90
50162;DHT22;36061;48.116;11.612;2023-07-29T06:08:50;19.00;99.90
50162;DHT22;36061;48.116;11.612;2023-07-29T06:11:17;18.80;99.90
50162;DHT22;36061;48.116;11.612;2023-07-29T06:13:44;18.60;99.90
50162;DHT22;36061;48.116;11.612;2023-07-29T06:16:13;18.50;99.90
50162;DHT22;36061;48.116;11.612;2023-07-29T06:18:40;18.40;99.90
50162;DHT22;36061;48.116;11.612;2023-07-29T06:21:07;18.20;99.90
50162;DHT22;36061;48.116;11.612;2023-07-29T06:23:38;18.10;99.90
50162;DHT22;36061;48.116;11.612;2023-07-29T06:26:05;18.00;99.90
50162;DHT22;36061;48.116;11.612;2023-07-29T06:28:32;17.90;99.90
50162;DHT22;36061;48.116;11.612;2023-07-29T06:31:00;17.80;99.90
50162;DHT22;36061;48.116;11.612;2023-07-29T06:33:28;17.80;99.90
50162;DHT22;36061;48.116;11.612;2023-07-29T06:35:55;17.80;99.90
50162;DHT22;36061;48.116;11.612;2023-07-29T06:38:23;17.80;99.90
50162;DHT22;36061;48.116;11.612;2023-07-29T06:40:50;17.90;99.90
50162;DHT22;36061;48.116;11.612;2023-07-29T06:43:18;17.90;99.90
50162;DHT22;36061;48.116;11.612;2023-07-29T06:45:45;17.90;99.90
50162;DHT22;36061;48.116;11.612;2023-07-29T06:48:13;18.00;99.90
50162;DHT22;36061;48.116;11.612;2023-07-29T06:50:41;18.00;99.90
50162;DHT22;36061;48.116;11.612;2023-07-29T06:53:09;18.00;99.90
50162;DHT22;36061;48.116;11.612;2023-07-29T06:55:36;18.00;99.90
50162;DHT22;36061;48.116;11.612;2023-07-29T06:58:03;18.00;99.90
50162;DHT22;36061;48.116;11.612;2023-07-29T07:00:31;17.90;99.90
50162;DHT22;36061;48.116;11.612;2023-07-29T07:02:58;17.90;99.90
50162;DHT22;36061;48.116;11.612;2023-07-29T07:05:25;17.80;99.90
50162;DHT22;36061;48.116;11.612;2023-07-29T07:07:54;17.70;99.90
50162;DHT22;36061;48.116;11.612;2023-07-29T07:10:21;17.60;99.90
50162;DHT22;36061;48.116;11.612;2023-07-29T07:12:48;17.50;99.90
50162;DHT22;36061;48.116;11.612;2023-07-29T07:15:15;17.50;99.90
50162;DHT22;36061;48.116;11.612;2023-07-29T07:17:43;17.50;99.90
50162;DHT22;36061;48.116;11.612;2023-07-29T07:20:11;17.40;99.90
50162;DHT22;36061;48.116;11.612;2023-07-29T07:22:38;17.50;99.90
50162;DHT22;36061;48.116;11.612;2023-07-29T07:25:08;17.40;99.90
50162;DHT22;36061;48.116;11.612;2023-07-29T07:27:36;17.50;99.90
50162;DHT22;36061;48.116;11.612;2023-07-29T07:30:03;17.50;99.90
50162;DHT22;36061;48.116;11.612;2023-07-29T07:32:31;17.50;99.90
50162;DHT22;36061;48.116;11.612;2023-07-29T07:34:58;17.50;99.90
50162;DHT22;36061;48.116;11.612;2023-07-29T07:37:25;17.60;99.90
50162;DHT22;36061;48.116;11.612;2023-07-29T07:39:52;17.60;99.90
50162;DHT22;36061;48.116;11.612;2023-07-29T07:42:21;17.60;99.90
50162;DHT22;36061;48.116;11.612;2023-07-29T07:44:48;17.70;99.90
50162;DHT22;36061;48.116;11.612;2023-07-29T07:47:16;17.70;99.90
50162;DHT22;36061;48.116;11.612;2023-07-29T07:49:43;17.70;99.90
50162;DHT22;36061;48.116;11.612;2023-07-29T07:52:10;17.80;99.90
50162;DHT22;36061;48.116;11.612;2023-07-29T07:54:37;17.80;99.90
50162;DHT22;36061;48.116;11.612;2023-07-29T07:57:05;17.90;99.90
50162;DHT22;36061;48.116;11.612;2023-07-29T07:59:34;18.00;99.90
50162;DHT22;36061;48.116;11.612;2023-07-29T08:02:01;18.10;99.90
50162;DHT22;36061;48.116;11.612;2023-07-29T08:04:29;18.20;99.90
50162;DHT22;36061;48.116;11.612;2023-07-29T08:06:56;18.30;99.90
50162;DHT22;36061;48.116;11.612;2023-07-29T08:09:23;18.40;99.90
50162;DHT22;36061;48.116;11.612;2023-07-29T08:11:50;18.50;99.90
50162;DHT22;36061;48.116;11.612;2023-07-29T08:14:17;18.60;99.90
50162;DHT22;36061;48.116;11.612;2023-07-29T08:16:46;18.70;99.90
50162;DHT22;36061;48.116;11.612;2023-07-29T08:19:13;18.90;99.90
50162;DHT22;36061;48.116;11.612;2023-07-29T08:21:40;19.00;99.90
50162;DHT22;36061;48.116;11.612;2023-07-29T08:24:08;19.10;99.90
50162;DHT22;36061;48.116;11.612;2023-07-29T08:26:35;19.20;99.90
50162;DHT22;36061;48.116;11.612;2023-07-29T08:29:02;19.30;99.90
50162;DHT22;36061;48.116;11.612;2023-07-29T08:31:29;19.30;99.90
50162;DHT22;36061;48.116;11.612;2023-07-29T08:34:00;19.40;99.90
50162;DHT22;36061;48.116;11.612;2023-07-29T08:36:28;19.40;99.90
50162;DHT22;36061;48.116;11.612;2023-07-29T08:38:55;19.40;99.90
50162;DHT22;36061;48.116;11.612;2023-07-29T08:41:26;19.40;99.90
50162;DHT22;36061;48.116;11.612;2023-07-29T08:44:01;19.40;99.90
50162;DHT22;36061;48.116;11.612;2023-07-29T08:46:32;19.50;99.90
50162;DHT22;36061;48.116;11.612;2023-07-29T08:49:01;19.50;99.90
50162;DHT22;36061;48.116;11.612;2023-07-29T08:51:29;19.50;99.90
50162;DHT22;36061;48.116;11.612;2023-07-29T08:54:01;19.50;99.90
50162;DHT22;36061;48.116;11.612;2023-07-29T08:56:29;19.50;99.90
50162;DHT22;36061;48.116;11.612;2023-07-29T08:58:56;19.50;99.90
50162;DHT22;36061;48.116;11.612;2023-07-29T09:01:26;19.50;99.90
50162;DHT22;36061;48.116;11.612;2023-07-29T09:03:53;19.60;99.90
50162;DHT22;36061;48.116;11.612;2023-07-29T09:06:23;19.60;99.90
50162;DHT22;36061;48.116;11.612;2023-07-29T09:08:53;19.70;99.90
50162;DHT22;36061;48.116;11.612;2023-07-29T09:11:22;19.80;99.90
50162;DHT22;36061;48.116;11.612;2023-07-29T09:13:49;19.80;99.90
50162;DHT22;36061;48.116;11.612;2023-07-29T09:16:17;19.90;99.90
50162;DHT22;36061;48.116;11.612;2023-07-29T09:18:47;20.00;99.90
50162;DHT22;36061;48.116;11.612;2023-07-29T09:21:16;20.10;99.90
50162;DHT22;36061;48.116;11.612;2023-07-29T09:23:45;20.20;99.90
50162;DHT22;36061;48.116;11.612;2023-07-29T09:26:12;20.20;99.90
50162;DHT22;36061;48.116;11.612;2023-07-29T09:28:40;20.40;99.90
50162;DHT22;36061;48.116;11.612;2023-07-29T09:31:19;20.50;99.90
50162;DHT22;36061;48.116;11.612;2023-07-29T09:33:46;20.70;99.90
50162;DHT22;36061;48.116;11.612;2023-07-29T09:36:13;20.90;99.90
50162;DHT22;36061;48.116;11.612;2023-07-29T09:38:41;21.00;99.90
50162;DHT22;36061;48.116;11.612;2023-07-29T09:41:11;21.10;99.90
50162;DHT22;36061;48.116;11.612;2023-07-29T09:43:39;21.30;99.90
50162;DHT22;36061;48.116;11.612;2023-07-29T09:46:07;21.50;99.90
50162;DHT22;36061;48.116;11.612;2023-07-29T09:48:35;21.60;99.90
50162;DHT22;36061;48.116;11.612;2023-07-29T09:51:10;21.70;99.90
50162;DHT22;36061;48.116;11.612;2023-07-29T09:53:40;21.80;99.90
50162;DHT22;36061;48.116;11.612;2023-07-29T09:56:09;22.00;99.90
50162;DHT22;36061;48.116;11.612;2023-07-29T09:58:37;22.00;99.90
50162;DHT22;36061;48.116;11.612;2023-07-29T10:01:05;22.10;99.90
50162;DHT22;36061;48.116;11.612;2023-07-29T10:03:35;22.10;99.90
50162;DHT22;36061;48.116;11.612;2023-07-29T10:06:05;22.20;99.90
50162;DHT22;36061;48.116;11.612;2023-07-29T10:08:33;22.30;99.90
50162;DHT22;36061;48.116;11.612;2023-07-29T10:11:05;22.40;99.90
50162;DHT22;36061;48.116;11.612;2023-07-29T10:13:36;22.40;99.90
50162;DHT22;36061;48.116;11.612;2023-07-29T10:16:04;22.40;99.90
50162;DHT22;36061;48.116;11.612;2023-07-29T10:18:33;22.40;99.90
50162;DHT22;36061;48.116;11.612;2023-07-29T10:21:01;22.50;99.90
50162;DHT22;36061;48.116;11.612;2023-07-29T10:23:36;22.50;99.90
50162;DHT22;36061;48.116;11.612;2023-07-29T10:26:05;22.60;99.90
50162;DHT22;36061;48.116;11.612;2023-07-29T10:28:34;22.70;99.90
50162;DHT22;36061;48.116;11.612;2023-07-29T10:31:04;22.70;99.90
50162;DHT22;36061;48.116;11.612;2023-07-29T10:33:33;22.90;99.90
50162;DHT22;36061;48.116;11.612;2023-07-29T10:36:01;23.00;99.90
50162;DHT22;36061;48.116;11.612;2023-07-29T10:38:29;23.00;99.90
50162;DHT22;36061;48.116;11.612;2023-07-29T10:40:57;23.10;99.90
50162;DHT22;36061;48.116;11.612;2023-07-29T10:43:27;23.20;99.90
50162;DHT22;36061;48.116;11.612;2023-07-29T10:46:15;23.30;99.90
50162;DHT22;36061;48.116;11.612;2023-07-29T10:48:44;23.40;99.90
50162;DHT22;36061;48.116;11.612;2023-07-29T10:51:25;23.40;99.90
50162;DHT22;36061;48.116;11.612;2023-07-29T10:53:55;23.40;99.90
50162;DHT22;36061;48.116;11.612;2023-07-29T10:56:30;23.50;99.90
50162;DHT22;36061;48.116;11.612;2023-07-29T11:01:51;23.50;99.90
50162;DHT22;36061;48.116;11.612;2023-07-29T11:04:26;23.40;99.90
50162;DHT22;36061;48.116;11.612;2023-07-29T11:07:19;23.40;99.90
50162;DHT22;36061;48.116;11.612;2023-07-29T11:09:57;23.50;99.90
50162;DHT22;36061;48.116;11.612;2023-07-29T11:12:36;23.80;99.90
50162;DHT22;36061;48.116;11.612;2023-07-29T11:15:06;23.90;99.90
50162;DHT22;36061;48.116;11.612;2023-07-29T11:17:41;24.10;99.90
50162;DHT22;36061;48.116;11.612;2023-07-29T11:20:09;24.10;99.90
50162;DHT22;36061;48.116;11.612;2023-07-29T11:22:37;24.10;99.90
50162;DHT22;36061;48.116;11.612;2023-07-29T11:25:05;24.20;99.90
50162;DHT22;36061;48.116;11.612;2023-07-29T11:27:33;24.10;99.90
50162;DHT22;36061;48.116;11.612;2023-07-29T11:30:03;24.10;99.90
50162;DHT22;36061;48.116;11.612;2023-07-29T11:32:31;23.90;99.90
50162;DHT22;36061;48.116;11.612;2023-07-29T11:35:03;23.70;99.90
50162;DHT22;36061;48.116;11.612;2023-07-29T11:37:32;23.40;99.90
50162;DHT22;36061;48.116;11.612;2023-07-29T11:39:59;23.30;99.90
50162;DHT22;36061;48.116;11.612;2023-07-29T11:42:27;23.20;99.90
50162;DHT22;36061;48.116;11.612;2023-07-29T11:44:56;23.10;99.90
50162;DHT22;36061;48.116;11.612;2023-07-29T11:47:24;23.10;99.90
50162;DHT22;36061;48.116;11.612;2023-07-29T11:49:52;23.20;99.90
50162;DHT22;36061;48.116;11.612;2023-07-29T11:52:20;23.20;99.90
50162;DHT22;36061;48.116;11.612;2023-07-29T11:54:49;23.20;99.90
50162;DHT22;36061;48.116;11.612;2023-07-29T11:57:16;23.20;99.90
50162;DHT22;36061;48.116;11.612;2023-07-29T11:59:45;23.20;99.90
50162;DHT22;36061;48.116;11.612;2023-07-29T12:02:15;23.20;99.90
50162;DHT22;36061;48.116;11.612;2023-07-29T12:04:44;23.30;99.90
50162;DHT22;36061;48.116;11.612;2023-07-29T12:07:13;23.30;99.90
50162;DHT22;36061;48.116;11.612;2023-07-29T12:09:43;23.40;99.90
50162;DHT22;36061;48.116;11.612;2023-07-29T12:12:11;23.40;99.90
50162;DHT22;36061;48.116;11.612;2023-07-29T12:14:38;23.40;99.90
50162;DHT22;36061;48.116;11.612;2023-07-29T12:17:06;23.40;99.90
50162;DHT22;36061;48.116;11.612;2023-07-29T12:19:34;23.50;99.90
50162;DHT22;36061;48.116;11.612;2023-07-29T12:22:02;23.40;99.90
50162;DHT22;36061;48.116;11.612;2023-07-29T12:24:29;23.50;99.90
50162;DHT22;36061;48.116;11.612;2023-07-29T12:26:59;23.60;99.90
50162;DHT22;36061;48.116;11.612;2023-07-29T12:29:27;23.60;99.90
50162;DHT22;36061;48.116;11.612;2023-07-29T12:31:58;23.70;99.90
50162;DHT22;36061;48.116;11.612;2023-07-29T12:34:26;23.80;99.90
50162;DHT22;36061;48.116;11.612;2023-07-29T12:36:55;23.90;99.90
50162;DHT22;36061;48.116;11.612;2023-07-29T12:39:23;24.10;99.90
50162;DHT22;36061;48.116;11.612;2023-07-29T12:41:52;24.20;99.90
50162;DHT22;36061;48.116;11.612;2023-07-29T12:44:23;24.20;99.90
50162;DHT22;36061;48.116;11.612;2023-07-29T12:46:50;24.20;99.90
50162;DHT22;36061;48.116;11.612;2023-07-29T12:49:18;24.10;99.90
50162;DHT22;36061;48.116;11.612;2023-07-29T12:51:46;24.10;99.90
50162;DHT22;36061;48.116;11.612;2023-07-29T12:54:13;24.00;99.90
50162;DHT22;36061;48.116;11.612;2023-07-29T12:56:40;23.80;99.90
50162;DHT22;36061;48.116;11.612;2023-07-29T12:59:07;23.70;99.90
50162;DHT22;36061;48.116;11.612;2023-07-29T13:01:36;23.70;99.90
50162;DHT22;36061;48.116;11.612;2023-07-29T13:04:03;23.50;99.90
50162;DHT22;36061;48.116;11.612;2023-07-29T13:06:31;23.30;99.90
50162;DHT22;36061;48.116;11.612;2023-07-29T13:08:58;23.00;99.90
50162;DHT22;36061;48.116;11.612;2023-07-29T13:11:25;22.70;99.90
50162;DHT22;36061;48.116;11.612;2023-07-29T13:13:53;22.50;99.90
50162;DHT22;36061;48.116;11.612;2023-07-29T13:16:20;22.30;99.90
50162;DHT22;36061;48.116;11.612;2023-07-29T13:18:48;22.00;99.90
50162;DHT22;36061;48.116;11.612;2023-07-29T13:21:16;21.80;99.90
50162;DHT22;36061;48.116;11.612;2023-07-29T13:23:43;21.50;99.90
50162;DHT22;36061;48.116;11.612;2023-07-29T13:26:10;21.20;99.90
50162;DHT22;36061;48.116;11.612;2023-07-29T13:28:38;21.00;99.90
50162;DHT22;36061;48.116;11.612;2023-07-29T13:31:05;20.80;99.90
50162;DHT22;36061;48.116;11.612;2023-07-29T13:33:32;20.60;99.90
50162;DHT22;36061;48.116;11.612;2023-07-29T13:36:01;20.50;99.90
50162;DHT22;36061;48.116;11.612;2023-07-29T13:38:29;20.40;99.90
50162;DHT22;36061;48.116;11.612;2023-07-29T13:40:56;20.30;99.90
50162;DHT22;36061;48.116;11.612;2023-07-29T13:43:24;20.30;99.90
50162;DHT22;36061;48.116;11.612;2023-07-29T13:45:51;20.30;99.90
50162;DHT22;36061;48.116;11.612;2023-07-29T13:48:18;20.30;99.90
50162;DHT22;36061;48.116;11.612;2023-07-29T13:50:45;20.20;99.90
50162;DHT22;36061;48.116;11.612;2023-07-29T13:53:14;20.30;99.90
50162;DHT22;36061;48.116;11.612;2023-07-29T13:55:41;20.30;99.90
50162;DHT22;36061;48.116;11.612;2023-07-29T13:58:08;20.30;99.90
50162;DHT22;36061;48.116;11.612;2023-07-29T14:00:36;20.30;99.90
50162;DHT22;36061;48.116;11.612;2023-07-29T14:03:03;20.40;99.90
50162;DHT22;36061;48.116;11.612;2023-07-29T14:05:30;20.40;99.90
50162;DHT22;36061;48.116;11.612;2023-07-29T14:07:57;20.40;99.90
50162;DHT22;36061;48.116;11.612;2023-07-29T14:10:26;20.40;99.90
50162;DHT22;36061;48.116;11.612;2023-07-29T14:12:53;20.40;99.90
50162;DHT22;36061;48.116;11.612;2023-07-29T14:15:21;20.40;99.90
50162;DHT22;36061;48.116;11.612;2023-07-29T14:17:48;20.40;99.90
50162;DHT22;36061;48.116;11.612;2023-07-29T14:20:16;20.30;99.90
50162;DHT22;36061;48.116;11.612;2023-07-29T14:22:43;20.30;99.90
50162;DHT22;36061;48.116;11.612;2023-07-29T14:25:11;20.30;99.90
50162;DHT22;36061;48.116;11.612;2023-07-29T14:27:39;20.20;99.90
50162;DHT22;36061;48.116;11.612;2023-07-29T14:30:07;20.20;99.90
50162;DHT22;36061;48.116;11.612;2023-07-29T14:32:34;20.20;99.90
50162;DHT22;36061;48.116;11.612;2023-07-29T14:35:03;20.20;99.90
50162;DHT22;36061;48.116;11.612;2023-07-29T14:37:31;20.20;99.90
50162;DHT22;36061;48.116;11.612;2023-07-29T14:39:58;20.20;99.90
50162;DHT22;36061;48.116;11.612;2023-07-29T14:42:26;20.20;99.90
50162;DHT22;36061;48.116;11.612;2023-07-29T14:44:55;20.20;99.90
50162;DHT22;36061;48.116;11.612;2023-07-29T14:47:22;20.10;99.90
50162;DHT22;36061;48.116;11.612;2023-07-29T14:49:50;20.10;99.90
50162;DHT22;36061;48.116;11.612;2023-07-29T14:52:17;20.00;99.90
50162;DHT22;36061;48.116;11.612;2023-07-29T14:54:44;20.00;99.90
50162;DHT22;36061;48.116;11.612;2023-07-29T14:57:11;19.90;99.90
50162;DHT22;36061;48.116;11.612;2023-07-29T14:59:39;19.90;99.90
50162;DHT22;36061;48.116;11.612;2023-07-29T15:02:07;19.80;99.90
50162;DHT22;36061;48.116;11.612;2023-07-29T15:04:34;19.80;99.90
50162;DHT22;36061;48.116;11.612;2023-07-29T15:07:02;19.80;99.90
50162;DHT22;36061;48.116;11.612;2023-07-29T15:09:29;19.70;99.90
50162;DHT22;36061;48.116;11.612;2023-07-29T15:11:57;19.70;99.90
50162;DHT22;36061;48.116;11.612;2023-07-29T15:14:24;19.70;99.90
50162;DHT22;36061;48.116;11.612;2023-07-29T15:16:51;19.70;99.90
50162;DHT22;36061;48.116;11.612;2023-07-29T15:19:20;19.70;99.90
50162;DHT22;36061;48.116;11.612;2023-07-29T15:21:47;19.70;99.90
50162;DHT22;36061;48.116;11.612;2023-07-29T15:24:14;19.70;99.90